sensor_id;sensor_type;location;lat;lon;timestamp;pressure;altitude;pressure_sealevel;temperature;humidity
69780;BME280;57052;55.602;38.096;2023-04-27T00:00:22;99588.84;;;13.28;59.16
69780;BME280;57052;55.602;38.096;2023-04-27T00:02:48;99587.06;;;13.24;59.09
69780;BME280;57052;55.602;38.096;2023-04-27T00:05:14;99594.13;;;13.25;58.57
69780;BME280;57052;55.602;38.096;2023-04-27T00:07:40;99579.59;;;13.16;59.27
69780;BME280;57052;55.602;38.096;2023-04-27T00:10:07;99574.66;;;13.18;58.65
69780;BME280;57052;55.602;38.096;2023-04-27T00:12:32;99594.91;;;13.25;58.60
69780;BME280;57052;55.602;38.096;2023-04-27T00:14:58;99592.59;;;13.19;58.88
69780;BME280;57052;55.602;38.096;2023-04-27T00:17:24;99603.16;;;13.20;59.11
69780;BME280;57052;55.602;38.096;2023-04-27T00:19:49;99611.63;;;13.19;59.46
69780;BME280;57052;55.602;38.096;2023-04-27T00:22:16;99608.50;;;13.12;58.99
69780;BME280;57052;55.602;38.096;2023-04-27T00:24:42;99603.72;;;13.04;59.76
69780;BME280;57052;55.602;38.096;2023-04-27T00:27:08;99546.63;;;12.63;59.53
69780;BME280;57052;55.602;38.096;2023-04-27T00:29:34;99621.13;;;13.03;59.59
69780;BME280;57052;55.602;38.096;2023-04-27T00:31:59;99621.22;;;12.98;60.07
69780;BME280;57052;55.602;38.096;2023-04-27T00:34:25;99604.00;;;12.88;59.59
69780;BME280;57052;55.602;38.096;2023-04-27T00:36:51;99612.28;;;12.97;59.98
69780;BME280;57052;55.602;38.096;2023-04-27T00:39:16;99618.22;;;12.99;60.07
69780;BME280;57052;55.602;38.096;2023-04-27T00:41:42;99622.63;;;12.95;59.98
69780;BME280;57052;55.602;38.096;2023-04-27T00:44:08;99603.72;;;12.90;60.13
69780;BME280;57052;55.602;38.096;2023-04-27T00:46:35;99595.84;;;12.88;60.25
69780;BME280;57052;55.602;38.096;2023-04-27T00:49:01;99600.59;;;12.97;60.50
69780;BME280;57052;55.602;38.096;2023-04-27T00:51:27;99595.16;;;12.97;59.95
69780;BME280;57052;55.602;38.096;2023-04-27T00:53:59;99598.59;;;13.02;60.76
69780;BME280;57052;55.602;38.096;2023-04-27T00:56:25;99585.03;;;13.02;59.60
69780;BME280;57052;55.602;38.096;2023-04-27T00:58:51;99565.38;;;12.92;59.89
69780;BME280;57052;55.602;38.096;2023-04-27T01:01:16;99585.19;;;13.06;60.34
69780;BME280;57052;55.602;38.096;2023-04-27T01:03:46;99588.50;;;13.03;60.35
69780;BME280;57052;55.602;38.096;2023-04-27T01:06:11;99598.38;;;12.99;60.69
69780;BME280;57052;55.602;38.096;2023-04-27T01:08:37;99603.91;;;12.94;60.33
69780;BME280;57052;55.602;38.096;2023-04-27T01:11:02;99613.28;;;12.88;60.31
69780;BME280;57052;55.602;38.096;2023-04-27T01:13:28;99603.69;;;12.76;60.38
69780;BME280;57052;55.602;38.096;2023-04-27T01:15:54;99604.00;;;12.75;60.55
69780;BME280;57052;55.602;38.096;2023-04-27T01:18:19;99604.19;;;12.78;60.85
69780;BME280;57052;55.602;38.096;2023-04-27T01:20:45;99607.72;;;12.79;60.83
69780;BME280;57052;55.602;38.096;2023-04-27T01:23:14;99579.13;;;12.68;61.22
69780;BME280;57052;55.602;38.096;2023-04-27T01:25:40;99604.19;;;12.78;60.82
69780;BME280;57052;55.602;38.096;2023-04-27T01:28:06;99605.00;;;12.79;61.01
69780;BME280;57052;55.602;38.096;2023-04-27T01:30:31;99606.91;;;12.78;60.92
69780;BME280;57052;55.602;38.096;2023-04-27T01:32:57;99606.41;;;12.76;61.00
69780;BME280;57052;55.602;38.096;2023-04-27T01:35:23;99606.41;;;12.76;61.17
69780;BME280;57052;55.602;38.096;2023-04-27T01:37:49;99596.22;;;12.68;61.04
69780;BME280;57052;55.602;38.096;2023-04-27T01:40:15;99601.66;;;12.68;61.13
69780;BME280;57052;55.602;38.096;2023-04-27T01:42:41;99607.66;;;12.65;61.11
69780;BME280;57052;55.602;38.096;2023-04-27T01:45:07;99608.50;;;12.66;60.96
69780;BME280;57052;55.602;38.096;2023-04-27T01:47:33;99593.19;;;12.56;61.23
69780;BME280;57052;55.602;38.096;2023-04-27T01:49:59;99598.53;;;12.61;61.24
69780;BME280;57052;55.602;38.096;2023-04-27T01:52:24;99613.09;;;12.65;61.61
69780;BME280;57052;55.602;38.096;2023-04-27T01:54:50;99616.94;;;12.64;61.33
69780;BME280;57052;55.602;38.096;2023-04-27T01:57:15;99610.78;;;12.59;61.61
69780;BME280;57052;55.602;38.096;2023-04-27T01:59:42;99620.84;;;12.58;61.22
69780;BME280;57052;55.602;38.096;2023-04-27T02:02:07;99610.44;;;12.47;61.92
69780;BME280;57052;55.602;38.096;2023-04-27T02:04:33;99618.59;;;12.47;61.69
69780;BME280;57052;55.602;38.096;2023-04-27T02:07:01;99630.78;;;12.49;61.72
69780;BME280;57052;55.602;38.096;2023-04-27T02:09:27;99628.06;;;12.49;61.98
69780;BME280;57052;55.602;38.096;2023-04-27T02:11:52;99623.53;;;12.45;61.89
69780;BME280;57052;55.602;38.096;2023-04-27T02:14:18;99621.00;;;12.48;61.42
69780;BME280;57052;55.602;38.096;2023-04-27T02:17:04;99627.97;;;12.54;61.80
69780;BME280;57052;55.602;38.096;2023-04-27T02:19:29;99622.31;;;12.51;61.87
69780;BME280;57052;55.602;38.096;2023-04-27T02:21:55;99633.09;;;12.56;61.72
69780;BME280;57052;55.602;38.096;2023-04-27T02:24:21;99627.25;;;12.49;61.97
69780;BME280;57052;55.602;38.096;2023-04-27T02:26:46;99642.34;;;12.55;61.97
69780;BME280;57052;55.602;38.096;2023-04-27T02:29:12;99641.81;;;12.53;62.19
69780;BME280;57052;55.602;38.096;2023-04-27T02:31:38;99634.66;;;12.43;62.22
69780;BME280;57052;55.602;38.096;2023-04-27T02:34:03;99639.34;;;12.38;61.96
69780;BME280;57052;55.602;38.096;2023-04-27T02:36:29;99652.34;;;12.41;61.86
69780;BME280;57052;55.602;38.096;2023-04-27T02:38:55;99656.19;;;12.40;62.28
69780;BME280;57052;55.602;38.096;2023-04-27T02:41:21;99661.06;;;12.38;62.31
69780;BME280;57052;55.602;38.096;2023-04-27T02:43:47;99669.50;;;12.36;62.33
69780;BME280;57052;55.602;38.096;2023-04-27T02:46:14;99668.13;;;12.39;62.00
69780;BME280;57052;55.602;38.096;2023-04-27T02:48:40;99659.81;;;12.30;62.27
69780;BME280;57052;55.602;38.096;2023-04-27T02:51:06;99657.13;;;12.30;62.41
69780;BME280;57052;55.602;38.096;2023-04-27T02:53:32;99667.88;;;12.35;62.19
69780;BME280;57052;55.602;38.096;2023-04-27T02:55:57;99669.00;;;12.34;62.46
69780;BME280;57052;55.602;38.096;2023-04-27T02:58:23;99670.09;;;12.33;62.63
69780;BME280;57052;55.602;38.096;2023-04-27T03:00:53;99678.03;;;12.30;63.11
69780;BME280;57052;55.602;38.096;2023-04-27T03:03:20;99685.88;;;12.31;62.26
69780;BME280;57052;55.602;38.096;2023-04-27T03:05:46;99687.56;;;12.27;62.50
69780;BME280;57052;55.602;38.096;2023-04-27T03:08:12;99690.78;;;12.29;63.03
69780;BME280;57052;55.602;38.096;2023-04-27T03:10:37;99685.94;;;12.26;62.76
69780;BME280;57052;55.602;38.096;2023-04-27T03:13:03;99695.91;;;12.31;62.65
69780;BME280;57052;55.602;38.096;2023-04-27T03:15:29;99698.34;;;12.32;62.78
69780;BME280;57052;55.602;38.096;2023-04-27T03:17:54;99701.28;;;12.36;63.01
69780;BME280;57052;55.602;38.096;2023-04-27T03:20:20;99702.59;;;12.38;63.12
69780;BME280;57052;55.602;38.096;2023-04-27T03:22:46;99710.47;;;12.40;63.10
69780;BME280;57052;55.602;38.096;2023-04-27T03:25:12;99701.69;;;12.43;62.74
69780;BME280;57052;55.602;38.096;2023-04-27T03:27:38;99707.38;;;12.46;62.97
69780;BME280;57052;55.602;38.096;2023-04-27T03:30:04;99694.03;;;12.50;62.80
69780;BME280;57052;55.602;38.096;2023-04-27T03:32:30;99706.97;;;12.53;63.00
69780;BME280;57052;55.602;38.096;2023-04-27T03:34:56;99709.41;;;12.54;63.32
69780;BME280;57052;55.602;38.096;2023-04-27T03:37:21;99711.25;;;12.59;63.11
69780;BME280;57052;55.602;38.096;2023-04-27T03:39:47;99707.94;;;12.62;63.18
69780;BME280;57052;55.602;38.096;2023-04-27T03:42:13;99704.66;;;12.65;63.07
69780;BME280;57052;55.602;38.096;2023-04-27T03:44:38;99690.25;;;12.64;62.76
69780;BME280;57052;55.602;38.096;2023-04-27T03:47:04;99696.78;;;12.63;62.68
69780;BME280;57052;55.602;38.096;2023-04-27T03:49:37;99711.91;;;12.69;63.30
69780;BME280;57052;55.602;38.096;2023-04-27T03:52:03;99720.69;;;12.80;63.03
69780;BME280;57052;55.602;38.096;2023-04-27T03:54:32;99709.31;;;12.78;63.33
69780;BME280;57052;55.602;38.096;2023-04-27T03:56:57;99727.47;;;12.96;62.76
69780;BME280;57052;55.602;38.096;2023-04-27T03:59:23;99728.47;;;13.00;62.97
69780;BME280;57052;55.602;38.096;2023-04-27T04:01:49;99736.81;;;13.09;62.66
69780;BME280;57052;55.602;38.096;2023-04-27T04:04:14;99717.78;;;13.09;62.39
69780;BME280;57052;55.602;38.096;2023-04-27T04:06:40;99730.09;;;13.20;62.16
69780;BME280;57052;55.602;38.096;2023-04-27T04:09:06;99731.09;;;13.24;62.07
69780;BME280;57052;55.602;38.096;2023-04-27T04:11:32;99738.06;;;13.30;61.81
69780;BME280;57052;55.602;38.096;2023-04-27T04:13:57;99741.47;;;13.35;61.49
69780;BME280;57052;55.602;38.096;2023-04-27T04:16:23;99738.50;;;13.37;61.36
69780;BME280;57052;55.602;38.096;2023-04-27T04:18:49;99738.09;;;13.43;61.20
69780;BME280;57052;55.602;38.096;2023-04-27T04:21:14;99730.34;;;13.50;61.41
69780;BME280;57052;55.602;38.096;2023-04-27T04:23:40;99721.38;;;13.50;61.42
69780;BME280;57052;55.602;38.096;2023-04-27T04:26:06;99736.88;;;13.63;61.22
69780;BME280;57052;55.602;38.096;2023-04-27T04:28:33;99732.16;;;13.69;60.73
69780;BME280;57052;55.602;38.096;2023-04-27T04:31:02;99732.66;;;13.71;60.87
69780;BME280;57052;55.602;38.096;2023-04-27T04:33:29;99740.94;;;13.79;60.40
69780;BME280;57052;55.602;38.096;2023-04-27T04:35:55;99740.53;;;13.86;60.63
69780;BME280;57052;55.602;38.096;2023-04-27T04:38:21;99742.84;;;13.92;60.00
69780;BME280;57052;55.602;38.096;2023-04-27T04:40:48;99747.88;;;13.99;60.07
69780;BME280;57052;55.602;38.096;2023-04-27T04:43:14;99751.91;;;14.01;59.59
69780;BME280;57052;55.602;38.096;2023-04-27T04:45:40;99752.91;;;14.05;59.70
69780;BME280;57052;55.602;38.096;2023-04-27T04:48:06;99751.19;;;14.09;59.60
69780;BME280;57052;55.602;38.096;2023-04-27T04:50:33;99751.09;;;14.14;59.21
69780;BME280;57052;55.602;38.096;2023-04-27T04:52:58;99751.59;;;14.17;59.59
69780;BME280;57052;55.602;38.096;2023-04-27T04:55:27;99761.88;;;14.20;59.77
69780;BME280;57052;55.602;38.096;2023-04-27T04:57:53;99765.00;;;14.27;59.34
69780;BME280;57052;55.602;38.096;2023-04-27T05:00:18;99761.28;;;14.23;59.37
69780;BME280;57052;55.602;38.096;2023-04-27T05:02:44;99764.19;;;14.26;59.75
69780;BME280;57052;55.602;38.096;2023-04-27T05:05:10;99765.72;;;14.32;59.58
69780;BME280;57052;55.602;38.096;2023-04-27T05:07:36;99762.28;;;14.40;59.76
69780;BME280;57052;55.602;38.096;2023-04-27T05:10:01;99767.31;;;14.47;59.33
69780;BME280;57052;55.602;38.096;2023-04-27T05:12:29;99767.69;;;14.54;59.30
69780;BME280;57052;55.602;38.096;2023-04-27T05:14:55;99757.81;;;14.58;59.01
69780;BME280;57052;55.602;38.096;2023-04-27T05:17:21;99767.66;;;14.67;58.97
69780;BME280;57052;55.602;38.096;2023-04-27T05:19:46;99767.41;;;14.77;58.89
69780;BME280;57052;55.602;38.096;2023-04-27T05:22:12;99767.78;;;14.85;58.86
69780;BME280;57052;55.602;38.096;2023-04-27T05:24:38;99767.34;;;14.91;58.55
69780;BME280;57052;55.602;38.096;2023-04-27T05:27:03;99775.41;;;14.96;58.12
69780;BME280;57052;55.602;38.096;2023-04-27T05:29:29;99756.66;;;14.95;57.83
69780;BME280;57052;55.602;38.096;2023-04-27T05:31:55;99779.19;;;15.09;57.89
69780;BME280;57052;55.602;38.096;2023-04-27T05:34:21;99766.84;;;15.11;57.63
69780;BME280;57052;55.602;38.096;2023-04-27T05:36:46;99763.72;;;15.18;57.83
69780;BME280;57052;55.602;38.096;2023-04-27T05:39:12;99765.19;;;15.24;57.49
69780;BME280;57052;55.602;38.096;2023-04-27T05:41:38;99768.47;;;15.34;57.39
69780;BME280;57052;55.602;38.096;2023-04-27T05:44:05;99775.41;;;15.40;56.88
69780;BME280;57052;55.602;38.096;2023-04-27T05:46:31;99768.81;;;15.41;56.80
69780;BME280;57052;55.602;38.096;2023-04-27T05:48:57;99769.06;;;15.54;56.41
69780;BME280;57052;55.602;38.096;2023-04-27T05:51:23;99773.78;;;15.62;56.47
69780;BME280;57052;55.602;38.096;2023-04-27T05:53:49;99778.59;;;15.65;56.05
69780;BME280;57052;55.602;38.096;2023-04-27T05:56:15;99781.69;;;15.72;55.82
69780;BME280;57052;55.602;38.096;2023-04-27T05:58:40;99772.06;;;15.74;55.69
69780;BME280;57052;55.602;38.096;2023-04-27T06:01:06;99784.13;;;15.82;55.74
69780;BME280;57052;55.602;38.096;2023-04-27T06:03:32;99777.44;;;15.88;55.65
69780;BME280;57052;55.602;38.096;2023-04-27T06:05:59;99766.66;;;15.91;55.57
69780;BME280;57052;55.602;38.096;2023-04-27T06:08:27;99778.31;;;16.06;55.41
69780;BME280;57052;55.602;38.096;2023-04-27T06:10:53;99769.63;;;16.12;55.40
69780;BME280;57052;55.602;38.096;2023-04-27T06:13:19;99777.19;;;16.24;54.95
69780;BME280;57052;55.602;38.096;2023-04-27T06:15:45;99779.97;;;16.32;54.46
69780;BME280;57052;55.602;38.096;2023-04-27T06:18:11;99776.13;;;16.42;54.32
69780;BME280;57052;55.602;38.096;2023-04-27T06:20:37;99759.06;;;16.36;53.78
69780;BME280;57052;55.602;38.096;2023-04-27T06:23:03;99762.78;;;16.49;53.32
69780;BME280;57052;55.602;38.096;2023-04-27T06:25:28;99778.28;;;16.62;52.81
69780;BME280;57052;55.602;38.096;2023-04-27T06:27:54;99788.41;;;16.70;52.65
69780;BME280;57052;55.602;38.096;2023-04-27T06:30:21;99771.69;;;16.72;52.67
69780;BME280;57052;55.602;38.096;2023-04-27T06:32:48;99789.22;;;16.88;52.48
69780;BME280;57052;55.602;38.096;2023-04-27T06:35:13;99780.38;;;16.91;52.51
69780;BME280;57052;55.602;38.096;2023-04-27T06:37:39;99796.78;;;16.99;52.68
69780;BME280;57052;55.602;38.096;2023-04-27T06:40:06;99790.84;;;17.06;52.27
69780;BME280;57052;55.602;38.096;2023-04-27T06:42:33;99793.56;;;17.06;51.67
69780;BME280;57052;55.602;38.096;2023-04-27T06:44:58;99788.41;;;17.13;51.43
69780;BME280;57052;55.602;38.096;2023-04-27T06:47:24;99792.09;;;17.17;51.26
69780;BME280;57052;55.602;38.096;2023-04-27T06:49:50;99785.66;;;17.21;50.89
69780;BME280;57052;55.602;38.096;2023-04-27T06:52:15;99790.78;;;17.31;50.73
69780;BME280;57052;55.602;38.096;2023-04-27T06:54:41;99786.28;;;17.36;50.64
69780;BME280;57052;55.602;38.096;2023-04-27T06:57:07;99783.03;;;17.42;50.80
69780;BME280;57052;55.602;38.096;2023-04-27T06:59:33;99796.41;;;17.61;50.42
69780;BME280;57052;55.602;38.096;2023-04-27T07:01:58;99796.84;;;17.71;50.19
69780;BME280;57052;55.602;38.096;2023-04-27T07:04:24;99789.13;;;17.73;49.37
69780;BME280;57052;55.602;38.096;2023-04-27T07:06:50;99796.00;;;17.79;49.08
69780;BME280;57052;55.602;38.096;2023-04-27T07:09:15;99796.28;;;17.86;49.09
69780;BME280;57052;55.602;38.096;2023-04-27T07:11:41;99797.09;;;17.96;48.97
69780;BME280;57052;55.602;38.096;2023-04-27T07:14:07;99790.78;;;17.95;48.67
69780;BME280;57052;55.602;38.096;2023-04-27T07:16:33;99797.19;;;18.08;48.78
69780;BME280;57052;55.602;38.096;2023-04-27T07:18:58;99792.00;;;18.15;48.52
69780;BME280;57052;55.602;38.096;2023-04-27T07:21:24;99795.34;;;18.20;48.09
69780;BME280;57052;55.602;38.096;2023-04-27T07:23:50;99795.00;;;18.22;47.60
69780;BME280;57052;55.602;38.096;2023-04-27T07:26:15;99793.22;;;18.26;47.16
69780;BME280;57052;55.602;38.096;2023-04-27T07:28:42;99793.16;;;18.34;46.97
69780;BME280;57052;55.602;38.096;2023-04-27T07:31:08;99797.19;;;18.37;46.88
69780;BME280;57052;55.602;38.096;2023-04-27T07:33:35;99787.84;;;18.38;46.71
69780;BME280;57052;55.602;38.096;2023-04-27T07:36:01;99796.16;;;18.50;46.55
69780;BME280;57052;55.602;38.096;2023-04-27T07:38:27;99799.66;;;18.59;46.29
69780;BME280;57052;55.602;38.096;2023-04-27T07:40:57;99799.59;;;18.68;45.77
69780;BME280;57052;55.602;38.096;2023-04-27T07:43:23;99802.28;;;18.76;46.35
69780;BME280;57052;55.602;38.096;2023-04-27T07:45:50;99798.19;;;18.82;45.93
69780;BME280;57052;55.602;38.096;2023-04-27T07:48:16;99796.22;;;18.91;45.90
69780;BME280;57052;55.602;38.096;2023-04-27T07:50:42;99802.06;;;19.02;45.72
69780;BME280;57052;55.602;38.096;2023-04-27T07:53:08;99793.31;;;19.08;45.38
69780;BME280;57052;55.602;38.096;2023-04-27T07:55:33;99794.69;;;19.14;45.43
69780;BME280;57052;55.602;38.096;2023-04-27T07:57:59;99798.97;;;19.24;45.40
69780;BME280;57052;55.602;38.096;2023-04-27T08:00:25;99793.22;;;19.38;45.13
69780;BME280;57052;55.602;38.096;2023-04-27T08:02:52;99795.09;;;19.46;44.89
69780;BME280;57052;55.602;38.096;2023-04-27T08:05:18;99792.44;;;19.49;43.88
69780;BME280;57052;55.602;38.096;2023-04-27T08:07:44;99787.66;;;19.46;43.61
69780;BME280;57052;55.602;38.096;2023-04-27T08:10:10;99787.09;;;19.53;43.20
69780;BME280;57052;55.602;38.096;2023-04-27T08:12:35;99781.72;;;19.56;43.16
69780;BME280;57052;55.602;38.096;2023-04-27T08:15:01;99792.16;;;19.63;43.22
69780;BME280;57052;55.602;38.096;2023-04-27T08:17:29;99785.41;;;19.72;43.36
69780;BME280;57052;55.602;38.096;2023-04-27T08:19:55;99783.03;;;19.83;43.27
69780;BME280;57052;55.602;38.096;2023-04-27T08:22:20;99787.28;;;19.93;43.21
69780;BME280;57052;55.602;38.096;2023-04-27T08:24:46;99787.72;;;19.95;43.28
69780;BME280;57052;55.602;38.096;2023-04-27T08:27:12;99788.53;;;20.07;42.56
69780;BME280;57052;55.602;38.096;2023-04-27T08:29:47;99784.88;;;20.15;41.26
69780;BME280;57052;55.602;38.096;2023-04-27T08:32:14;99779.16;;;20.20;42.05
69780;BME280;57052;55.602;38.096;2023-04-27T08:34:40;99786.25;;;20.21;41.47
69780;BME280;57052;55.602;38.096;2023-04-27T08:37:07;99787.84;;;20.22;41.50
69780;BME280;57052;55.602;38.096;2023-04-27T08:39:33;99769.91;;;20.25;41.83
69780;BME280;57052;55.602;38.096;2023-04-27T08:41:58;99767.72;;;20.30;41.38
69780;BME280;57052;55.602;38.096;2023-04-27T08:44:24;99778.81;;;20.46;41.59
69780;BME280;57052;55.602;38.096;2023-04-27T08:46:50;99775.59;;;20.56;41.47
69780;BME280;57052;55.602;38.096;2023-04-27T08:49:16;99778.78;;;20.58;40.95
69780;BME280;57052;55.602;38.096;2023-04-27T08:51:42;99783.69;;;20.65;41.08
69780;BME280;57052;55.602;38.096;2023-04-27T08:54:08;99784.63;;;20.69;40.62
69780;BME280;57052;55.602;38.096;2023-04-27T08:56:34;99787.91;;;20.74;39.88
69780;BME280;57052;55.602;38.096;2023-04-27T08:59:01;99786.53;;;20.80;39.66
69780;BME280;57052;55.602;38.096;2023-04-27T09:01:29;99775.72;;;20.87;39.52
69780;BME280;57052;55.602;38.096;2023-04-27T09:04:00;99771.25;;;20.95;38.46
69780;BME280;57052;55.602;38.096;2023-04-27T09:06:33;99783.22;;;21.15;39.14
69780;BME280;57052;55.602;38.096;2023-04-27T09:08:59;99779.66;;;21.26;39.29
69780;BME280;57052;55.602;38.096;2023-04-27T09:11:33;99780.47;;;21.42;38.60
69780;BME280;57052;55.602;38.096;2023-04-27T09:14:01;99774.19;;;21.57;39.10
69780;BME280;57052;55.602;38.096;2023-04-27T09:16:29;99774.09;;;21.69;39.27
69780;BME280;57052;55.602;38.096;2023-04-27T09:18:57;99773.50;;;21.76;38.95
69780;BME280;57052;55.602;38.096;2023-04-27T09:21:29;99766.22;;;21.84;37.82
69780;BME280;57052;55.602;38.096;2023-04-27T09:24:09;99783.41;;;22.08;37.15
69780;BME280;57052;55.602;38.096;2023-04-27T09:26:36;99780.81;;;22.15;37.29
69780;BME280;57052;55.602;38.096;2023-04-27T09:29:02;99770.03;;;22.26;37.68
69780;BME280;57052;55.602;38.096;2023-04-27T09:31:31;99781.19;;;22.49;38.52
69780;BME280;57052;55.602;38.096;2023-04-27T09:33:57;99777.50;;;22.60;37.64
69780;BME280;57052;55.602;38.096;2023-04-27T09:36:24;99765.59;;;22.72;37.46
69780;BME280;57052;55.602;38.096;2023-04-27T09:38:51;99765.88;;;22.86;37.41
69780;BME280;57052;55.602;38.096;2023-04-27T09:41:18;99766.25;;;23.04;37.45
69780;BME280;57052;55.602;38.096;2023-04-27T09:43:45;99772.22;;;23.06;36.63
69780;BME280;57052;55.602;38.096;2023-04-27T09:46:12;99763.84;;;23.21;37.32
69780;BME280;57052;55.602;38.096;2023-04-27T09:48:39;99775.28;;;23.39;36.68
69780;BME280;57052;55.602;38.096;2023-04-27T09:51:05;99768.84;;;23.54;36.28
69780;BME280;57052;55.602;38.096;2023-04-27T09:53:33;99773.03;;;23.67;36.08
69780;BME280;57052;55.602;38.096;2023-04-27T09:56:15;99774.28;;;23.70;33.47
69780;BME280;57052;55.602;38.096;2023-04-27T09:59:09;99767.44;;;23.64;32.14
69780;BME280;57052;55.602;38.096;2023-04-27T10:01:44;99771.31;;;23.82;33.61
69780;BME280;57052;55.602;38.096;2023-04-27T10:07:09;99780.53;;;23.89;31.56
69780;BME280;57052;55.602;38.096;2023-04-27T10:09:41;99771.63;;;23.77;32.09
69780;BME280;57052;55.602;38.096;2023-04-27T10:12:20;99771.34;;;23.63;32.74
69780;BME280;57052;55.602;38.096;2023-04-27T10:14:54;99777.44;;;23.49;32.78
69780;BME280;57052;55.602;38.096;2023-04-27T10:17:30;99769.75;;;23.39;33.33
69780;BME280;57052;55.602;38.096;2023-04-27T10:20:04;99747.78;;;23.27;33.71
69780;BME280;57052;55.602;38.096;2023-04-27T10:22:46;99768.03;;;23.53;34.85
69780;BME280;57052;55.602;38.096;2023-04-27T10:25:24;99766.41;;;23.72;33.98
69780;BME280;57052;55.602;38.096;2023-04-27T10:28:00;99769.34;;;24.05;33.77
69780;BME280;57052;55.602;38.096;2023-04-27T10:30:32;99760.38;;;24.38;34.19
69780;BME280;57052;55.602;38.096;2023-04-27T10:33:03;99766.41;;;24.73;32.40
69780;BME280;57052;55.602;38.096;2023-04-27T10:35:40;99760.06;;;24.99;30.85
69780;BME280;57052;55.602;38.096;2023-04-27T10:40:58;99755.66;;;25.27;29.19
69780;BME280;57052;55.602;38.096;2023-04-27T10:43:29;99766.69;;;25.24;31.15
69780;BME280;57052;55.602;38.096;2023-04-27T10:46:12;99741.16;;;25.04;30.27
69780;BME280;57052;55.602;38.096;2023-04-27T10:48:42;99735.34;;;24.83;31.50
69780;BME280;57052;55.602;38.096;2023-04-27T10:51:09;99757.69;;;24.71;31.79
69780;BME280;57052;55.602;38.096;2023-04-27T10:53:35;99757.13;;;24.58;31.70
69780;BME280;57052;55.602;38.096;2023-04-27T10:56:02;99761.59;;;24.40;31.86
69780;BME280;57052;55.602;38.096;2023-04-27T10:58:28;99750.13;;;24.12;31.95
69780;BME280;57052;55.602;38.096;2023-04-27T11:00:54;99757.91;;;24.06;32.35
69780;BME280;57052;55.602;38.096;2023-04-27T11:03:23;99760.06;;;23.94;31.53
69780;BME280;57052;55.602;38.096;2023-04-27T11:05:59;99767.31;;;23.79;31.13
69780;BME280;57052;55.602;38.096;2023-04-27T11:08:25;99770.28;;;23.67;32.74
69780;BME280;57052;55.602;38.096;2023-04-27T11:10:51;99778.28;;;23.53;32.79
69780;BME280;57052;55.602;38.096;2023-04-27T11:13:21;99791.69;;;23.32;32.45
69780;BME280;57052;55.602;38.096;2023-04-27T11:15:55;99811.06;;;22.78;34.72
69780;BME280;57052;55.602;38.096;2023-04-27T11:18:24;99825.34;;;22.64;35.79
69780;BME280;57052;55.602;38.096;2023-04-27T11:20:52;99828.38;;;22.28;37.14
69780;BME280;57052;55.602;38.096;2023-04-27T11:23:26;99817.72;;;21.95;38.00
69780;BME280;57052;55.602;38.096;2023-04-27T11:25:54;99836.81;;;21.88;37.83
69780;BME280;57052;55.602;38.096;2023-04-27T11:28:21;99840.22;;;21.69;38.49
69780;BME280;57052;55.602;38.096;2023-04-27T11:30:57;99845.78;;;21.57;39.54
69780;BME280;57052;55.602;38.096;2023-04-27T11:33:23;99850.31;;;21.50;39.04
69780;BME280;57052;55.602;38.096;2023-04-27T11:35:48;99843.66;;;21.51;38.98
69780;BME280;57052;55.602;38.096;2023-04-27T11:38:15;99845.25;;;21.52;39.34
69780;BME280;57052;55.602;38.096;2023-04-27T11:40:41;99847.53;;;21.34;39.71
69780;BME280;57052;55.602;38.096;2023-04-27T11:43:11;99846.97;;;21.29;40.33
69780;BME280;57052;55.602;38.096;2023-04-27T11:45:41;99851.19;;;21.38;40.40
69780;BME280;57052;55.602;38.096;2023-04-27T11:48:14;99840.59;;;21.68;40.36
69780;BME280;57052;55.602;38.096;2023-04-27T11:50:46;99841.91;;;21.86;39.90
69780;BME280;57052;55.602;38.096;2023-04-27T11:53:13;99824.78;;;21.81;39.51
69780;BME280;57052;55.602;38.096;2023-04-27T11:55:39;99832.16;;;21.77;39.49
69780;BME280;57052;55.602;38.096;2023-04-27T11:58:12;99832.44;;;21.71;39.86
69780;BME280;57052;55.602;38.096;2023-04-27T12:00:39;99824.19;;;22.03;39.77
69780;BME280;57052;55.602;38.096;2023-04-27T12:03:05;99823.81;;;22.51;39.14
69780;BME280;57052;55.602;38.096;2023-04-27T12:05:30;99800.28;;;22.73;37.99
69780;BME280;57052;55.602;38.096;2023-04-27T12:07:56;99804.25;;;22.91;37.03
69780;BME280;57052;55.602;38.096;2023-04-27T12:10:23;99815.16;;;23.03;36.29
69780;BME280;57052;55.602;38.096;2023-04-27T12:12:49;99806.81;;;23.00;36.14
69780;BME280;57052;55.602;38.096;2023-04-27T12:15:15;99800.47;;;23.18;35.22
69780;BME280;57052;55.602;38.096;2023-04-27T12:17:41;99795.97;;;23.48;35.13
69780;BME280;57052;55.602;38.096;2023-04-27T12:20:07;99803.19;;;23.76;34.76
69780;BME280;57052;55.602;38.096;2023-04-27T12:22:34;99806.38;;;24.00;34.54
69780;BME280;57052;55.602;38.096;2023-04-27T12:25:00;99803.00;;;24.33;34.78
69780;BME280;57052;55.602;38.096;2023-04-27T12:27:26;99794.75;;;24.63;34.32
69780;BME280;57052;55.602;38.096;2023-04-27T12:29:52;99780.31;;;24.76;33.43
69780;BME280;57052;55.602;38.096;2023-04-27T12:32:19;99787.91;;;25.09;33.35
69780;BME280;57052;55.602;38.096;2023-04-27T12:34:45;99781.38;;;25.28;32.61
69780;BME280;57052;55.602;38.096;2023-04-27T12:37:11;99784.69;;;25.40;32.53
69780;BME280;57052;55.602;38.096;2023-04-27T12:39:37;99780.44;;;25.46;32.13
69780;BME280;57052;55.602;38.096;2023-04-27T12:42:03;99782.78;;;25.44;31.93
69780;BME280;57052;55.602;38.096;2023-04-27T12:44:28;99783.91;;;25.40;31.82
69780;BME280;57052;55.602;38.096;2023-04-27T12:46:54;99781.34;;;25.24;31.88
69780;BME280;57052;55.602;38.096;2023-04-27T12:49:20;99781.97;;;25.11;31.99
69780;BME280;57052;55.602;38.096;2023-04-27T12:51:46;99780.16;;;24.92;32.05
69780;BME280;57052;55.602;38.096;2023-04-27T12:54:12;99771.66;;;24.78;32.50